Cheektowaga, New York
Current Conditions -  °F | °C
As of 3:54 AM on Monday 20 Oct 2014 (Local Time) from KBUF Reporting Station
Overcast Overcast  
Wind Chill: 44°   Ceiling: 3300
Heat Index: 44°   Visibility: 10mi
Dew Point: 38°   Wind: 3mph
Humidity: 79%   Direction: 180°S
Pressure: 29.97"   Gusts: NA
Location:  42.9°N, 78.74°W
Report Text: KBUF 200754Z 18003KT 10SM FEW023 BKN033 OVC120 07/03 A2997 RMK AO2 SLP154 T00670033
Loading
Personal Weather Stations






























Interactive Weather Map New forecast layout! Learn more

10-Day Weather Forecast

Advertisements
Track Severe Weather on mobile